createdAt,value
2022-09-12T00:01:22.323Z,99
2022-09-12T00:11:22.701Z,99
2022-09-12T00:21:23.219Z,99
2022-09-12T00:31:23.589Z,100
2022-09-12T00:51:24.768Z,100
2022-09-12T01:01:27.356Z,100
2022-09-12T01:31:27.860Z,100
2022-09-12T01:51:29.442Z,100
2022-09-12T02:21:31.241Z,100
2022-09-12T02:31:32.082Z,100
2022-09-12T02:41:33.065Z,100
2022-09-12T02:51:33.497Z,100
2022-09-12T03:11:34.911Z,100
2022-09-12T03:34:40.325Z,99
2022-09-12T03:49:40.437Z,99
2022-09-12T04:41:42.346Z,99
2022-09-12T05:01:43.762Z,98
2022-09-12T05:21:44.787Z,98
2022-09-12T05:31:43.815Z,97
2022-09-12T05:41:43.275Z,98
2022-09-12T06:11:44.924Z,96
2022-09-12T06:21:46.550Z,96
2022-09-12T06:51:48.501Z,91
2022-09-12T07:01:48.056Z,90
2022-09-12T07:21:48.556Z,90
2022-09-12T08:21:48.659Z,84
2022-09-12T08:31:48.853Z,82
2022-09-12T08:41:49.298Z,82
2022-09-12T08:51:49.905Z,80
2022-09-12T09:01:50.982Z,78
2022-09-12T09:11:51.631Z,77
2022-09-12T09:21:52.608Z,77
2022-09-12T09:31:53.059Z,76
2022-09-12T09:41:54.040Z,75
2022-09-12T09:51:56.526Z,74
2022-09-12T10:01:55.144Z,73
2022-09-12T10:11:55.985Z,73
2022-09-12T10:21:56.638Z,70
2022-09-12T10:31:57.503Z,67
2022-09-12T10:34:35.944Z,67
2022-09-12T10:42:05.993Z,66
2022-09-12T10:52:06.811Z,65
2022-09-12T11:02:07.188Z,66
2022-09-12T11:22:08.315Z,64
2022-09-12T11:32:09.206Z,61
2022-09-12T11:42:10.196Z,59
2022-09-12T11:52:10.548Z,59
2022-09-12T12:02:11.337Z,59
2022-09-12T12:32:12.815Z,58
2022-09-12T12:42:17.051Z,57
2022-09-12T12:52:14.297Z,54
2022-09-12T13:02:15.244Z,54
2022-09-12T13:12:15.508Z,52
2022-09-12T13:22:16.176Z,54
2022-09-12T13:32:16.363Z,53
2022-09-12T13:42:16.495Z,52
2022-09-12T13:52:17.006Z,52
2022-09-12T14:02:17.901Z,49
2022-09-12T14:12:18.463Z,51
2022-09-12T14:22:18.595Z,50
2022-09-12T14:32:18.655Z,51
2022-09-12T14:42:19.065Z,51
2022-09-12T14:52:19.337Z,51
2022-09-12T15:12:20.231Z,51
2022-09-12T15:22:21.266Z,51
2022-09-12T15:32:21.890Z,51
2022-09-12T15:42:22.920Z,51
2022-09-12T15:52:23.571Z,52
2022-09-12T16:02:23.943Z,51
2022-09-12T16:12:24.274Z,51
2022-09-12T16:22:25.041Z,51
2022-09-12T16:32:25.413Z,52
2022-09-12T16:52:26.299Z,54
2022-09-12T17:02:27.366Z,54
2022-09-12T17:12:27.885Z,55
2022-09-12T17:22:28.390Z,56
2022-09-12T17:32:28.774Z,58
2022-09-12T17:42:28.972Z,62
2022-09-12T17:52:29.273Z,66
2022-09-12T18:02:33.003Z,68
2022-09-12T18:12:30.469Z,71
2022-09-12T18:22:31.485Z,73
2022-09-12T18:32:31.825Z,75
2022-09-12T18:42:32.087Z,75
2022-09-12T18:52:33.101Z,77
2022-09-12T19:02:34.070Z,78
2022-09-12T19:22:35.788Z,78
2022-09-12T19:32:36.437Z,77
2022-09-12T19:42:36.565Z,75
2022-09-12T19:52:36.691Z,75
2022-09-12T20:02:37.583Z,76
2022-09-12T20:12:38.116Z,75
2022-09-12T20:32:39.262Z,72
2022-09-12T20:42:40.039Z,71
2022-09-12T20:52:41.056Z,69
2022-09-12T21:02:41.673Z,67
2022-09-12T21:12:41.790Z,66
2022-09-12T21:22:42.547Z,66
2022-09-12T21:32:43.170Z,67
2022-09-12T21:42:43.489Z,67
2022-09-12T21:52:43.598Z,68
2022-09-12T22:02:43.962Z,69
2022-09-12T22:12:46.432Z,68
2022-09-12T22:22:45.410Z,67
2022-09-12T22:32:45.713Z,67
2022-09-12T22:42:46.223Z,67
2022-09-12T22:52:46.523Z,67
2022-09-12T23:02:46.839Z,67
2022-09-12T23:12:47.820Z,68
2022-09-12T23:22:48.907Z,68
2022-09-12T23:32:49.829Z,69
2022-09-12T23:42:50.655Z,69
2022-09-12T23:52:51.517Z,69
